createdAt,value
2022-08-21T00:02:15.445Z,100215.59
2022-08-21T00:04:48.162Z,100208.34
2022-08-21T00:07:27.343Z,100222.69
2022-08-21T00:09:56.930Z,100199.22
2022-08-21T00:12:26.321Z,100217.09
2022-08-21T00:14:58.066Z,100225.38
2022-08-21T00:17:27.760Z,100225.00
2022-08-21T00:19:57.075Z,100225.31
2022-08-21T00:22:26.590Z,100192.88
2022-08-21T00:24:55.789Z,100233.59
2022-08-21T00:27:25.241Z,100228.00
2022-08-21T00:29:55.949Z,100239.00
2022-08-21T00:32:27.516Z,100250.28
2022-08-21T00:34:56.865Z,100248.66
2022-08-21T00:37:26.212Z,100241.19
2022-08-21T00:39:55.506Z,100249.78
2022-08-21T00:42:24.792Z,100256.50
2022-08-21T00:44:54.288Z,100258.88
2022-08-21T00:47:24.067Z,100224.72
2022-08-21T00:49:53.310Z,100250.78
2022-08-21T00:52:25.652Z,100245.69
2022-08-21T00:54:55.519Z,100249.69
2022-08-21T00:57:31.001Z,100244.91
2022-08-21T01:00:03.424Z,100248.78
2022-08-21T01:02:34.717Z,100246.06
2022-08-21T01:05:04.025Z,100232.22
2022-08-21T01:07:33.430Z,100256.75
2022-08-21T01:10:02.741Z,100251.66
2022-08-21T01:12:32.232Z,100258.06
2022-08-21T01:15:01.924Z,100243.69
2022-08-21T01:17:31.438Z,100255.38
2022-08-21T01:20:01.781Z,100259.06
2022-08-21T01:22:31.409Z,100243.88
2022-08-21T01:25:00.558Z,100251.56
2022-08-21T01:27:30.207Z,100255.84
2022-08-21T01:30:21.790Z,100266.53
2022-08-21T01:32:56.955Z,100257.47
2022-08-21T01:35:26.668Z,100257.16
2022-08-21T01:37:56.289Z,100266.53
2022-08-21T01:40:25.690Z,100239.41
2022-08-21T01:42:55.636Z,100241.19
2022-08-21T01:45:25.757Z,100252.06
2022-08-21T01:47:55.078Z,100258.84
2022-08-21T01:50:24.796Z,100238.28
2022-08-21T01:52:54.355Z,100230.91
2022-08-21T01:55:25.269Z,100261.25
2022-08-21T01:58:00.850Z,100257.16
2022-08-21T02:00:30.310Z,100243.78
2022-08-21T02:02:59.843Z,100244.28
2022-08-21T02:05:29.188Z,100250.56
2022-08-21T02:07:59.167Z,100232.69
2022-08-21T02:10:31.849Z,100249.47
2022-08-21T02:13:02.851Z,100244.69
2022-08-21T02:15:33.563Z,100238.69
2022-08-21T02:18:05.017Z,100233.69
2022-08-21T02:20:39.774Z,100208.31
2022-08-21T02:23:10.040Z,100222.41
2022-08-21T02:25:39.767Z,100224.09
2022-08-21T02:28:12.477Z,100221.88
2022-08-21T02:30:50.053Z,100202.72
2022-08-21T02:33:19.995Z,100209.91
2022-08-21T02:35:50.105Z,100215.69
2022-08-21T02:38:29.266Z,100204.41
2022-08-21T02:40:59.788Z,100200.63
2022-08-21T02:43:30.740Z,100211.28
2022-08-21T02:46:00.992Z,100193.72
2022-08-21T02:48:32.063Z,100199.91
2022-08-21T02:51:11.012Z,100206.31
2022-08-21T02:53:40.897Z,100192.13
2022-08-21T02:56:15.179Z,100209.69
2022-08-21T02:58:54.099Z,100184.84
2022-08-21T03:01:24.024Z,100197.09
2022-08-21T03:04:10.375Z,100191.63
2022-08-21T03:06:39.774Z,100196.81
2022-08-21T03:09:09.825Z,100183.72
2022-08-21T03:11:39.177Z,100174.94
2022-08-21T03:14:08.646Z,100189.81
2022-08-21T03:16:38.003Z,100175.03
2022-08-21T03:19:07.371Z,100160.88
2022-08-21T03:21:36.555Z,100137.59
2022-08-21T03:24:06.898Z,100163.47
2022-08-21T03:26:36.802Z,100162.84
2022-08-21T03:29:09.826Z,100164.44
2022-08-21T03:31:39.134Z,100132.41
2022-08-21T03:34:08.413Z,100138.19
2022-08-21T03:36:37.709Z,100147.44
2022-08-21T03:39:07.635Z,100139.97
2022-08-21T03:41:37.052Z,100137.69
2022-08-21T03:44:06.499Z,100140.09
2022-08-21T03:46:36.381Z,100149.69
2022-08-21T03:49:06.331Z,100123.53
2022-08-21T03:51:35.893Z,100123.25
2022-08-21T03:54:05.516Z,100128.03
2022-08-21T03:56:34.761Z,100103.28
2022-08-21T03:59:04.947Z,100096.81
2022-08-21T04:01:35.334Z,100094.84
2022-08-21T04:04:05.796Z,100112.69
2022-08-21T04:06:37.859Z,100129.59
2022-08-21T04:09:07.495Z,100144.09
2022-08-21T04:11:36.886Z,100117.66
2022-08-21T04:14:06.738Z,100124.00
2022-08-21T04:16:36.211Z,100109.06
2022-08-21T04:19:05.524Z,100125.31
2022-08-21T04:21:35.216Z,100124.81
2022-08-21T04:24:04.576Z,100126.41
2022-08-21T04:26:33.917Z,100098.00
2022-08-21T04:29:03.811Z,100097.78
2022-08-21T04:31:33.019Z,100120.75
2022-08-21T04:34:02.542Z,100121.69
2022-08-21T04:36:31.823Z,100105.94
2022-08-21T04:39:03.562Z,100097.03
2022-08-21T04:41:33.833Z,100111.41
2022-08-21T04:44:03.267Z,100104.56
2022-08-21T04:46:32.659Z,100113.50
2022-08-21T04:49:01.812Z,100103.81
2022-08-21T04:51:35.306Z,100097.63
2022-08-21T04:54:30.804Z,100105.59
2022-08-21T04:57:05.865Z,100085.56
2022-08-21T04:59:38.599Z,100095.63
2022-08-21T05:02:09.619Z,100087.34
2022-08-21T05:04:42.580Z,100086.03
2022-08-21T05:07:17.353Z,100080.44
2022-08-21T05:10:18.173Z,100049.56
2022-08-21T05:12:47.705Z,100076.47
2022-08-21T05:15:19.377Z,100060.53
2022-08-21T05:18:00.694Z,100056.25
2022-08-21T05:20:36.629Z,100067.69
2022-08-21T05:23:32.663Z,100053.06
2022-08-21T05:26:02.090Z,100065.50
2022-08-21T05:28:31.338Z,100070.09
2022-08-21T05:31:01.216Z,100060.59
2022-08-21T05:33:30.578Z,100044.16
2022-08-21T05:36:00.445Z,100061.41
2022-08-21T05:38:30.603Z,100044.66
2022-08-21T05:40:59.908Z,100070.16
2022-08-21T05:43:29.662Z,100056.16
2022-08-21T05:46:00.237Z,100064.56
2022-08-21T05:48:29.539Z,100050.50
2022-08-21T05:50:59.150Z,100038.91
2022-08-21T05:53:53.243Z,100038.78
2022-08-21T05:56:22.954Z,100043.06
2022-08-21T05:58:52.115Z,100033.06
2022-08-21T06:01:21.441Z,100032.59
2022-08-21T06:03:51.011Z,100033.56
2022-08-21T06:06:20.551Z,100035.66
2022-08-21T06:08:49.944Z,100030.88
2022-08-21T06:11:20.815Z,100019.28
2022-08-21T06:13:50.186Z,100009.72
2022-08-21T06:16:19.818Z,100016.78
2022-08-21T06:18:48.978Z,100007.06
2022-08-21T06:21:19.669Z,99994.34
2022-08-21T06:23:49.773Z,100024.25
2022-08-21T06:26:20.383Z,100005.91
2022-08-21T06:28:49.649Z,100025.34
2022-08-21T06:31:24.494Z,100016.78
2022-08-21T06:33:57.788Z,100008.63
2022-08-21T06:36:29.903Z,100025.28
2022-08-21T06:38:59.521Z,100027.19
2022-08-21T06:41:30.517Z,100020.66
2022-08-21T06:44:08.728Z,100041.91
2022-08-21T06:46:38.035Z,100044.91
2022-08-21T06:49:07.386Z,100017.69
2022-08-21T06:51:45.151Z,100019.66
2022-08-21T06:54:14.401Z,100019.16
2022-08-21T06:56:43.763Z,100027.25
2022-08-21T06:59:13.106Z,100035.03
2022-08-21T07:01:42.735Z,100040.53
2022-08-21T07:04:12.215Z,100023.00
2022-08-21T07:06:44.496Z,100037.59
2022-08-21T07:09:13.813Z,100029.84
2022-08-21T07:11:47.507Z,100046.34
2022-08-21T07:14:20.331Z,100047.97
2022-08-21T07:16:51.193Z,100069.66
2022-08-21T07:19:20.724Z,100075.03
2022-08-21T07:21:50.229Z,100060.56
2022-08-21T07:24:19.853Z,99986.03
2022-08-21T07:26:49.031Z,100018.53
2022-08-21T07:29:18.310Z,100033.91
2022-08-21T07:31:48.156Z,100033.91
2022-08-21T07:34:17.544Z,100014.06
2022-08-21T07:36:47.125Z,100010.84
2022-08-21T07:39:16.460Z,100019.47
2022-08-21T07:41:45.982Z,100020.88
2022-08-21T07:44:15.392Z,100030.25
2022-08-21T07:46:45.824Z,100051.00
2022-08-21T07:49:15.533Z,100066.25
2022-08-21T07:51:44.958Z,100068.78
2022-08-21T07:54:17.087Z,100056.50
2022-08-21T07:56:47.997Z,100049.22
2022-08-21T07:59:17.181Z,100055.00
2022-08-21T08:01:46.455Z,100055.31
2022-08-21T08:04:17.799Z,100042.53
2022-08-21T08:06:47.990Z,100026.00
2022-08-21T08:09:17.528Z,100068.78
2022-08-21T08:11:48.282Z,100039.88
2022-08-21T08:14:19.395Z,100075.88
2022-08-21T08:16:55.944Z,100087.16
2022-08-21T08:19:25.164Z,100068.09
2022-08-21T08:21:55.276Z,100066.00
2022-08-21T08:24:24.747Z,100068.59
2022-08-21T08:26:54.207Z,100054.63
2022-08-21T08:29:24.762Z,100039.84
2022-08-21T08:31:54.232Z,100032.56
2022-08-21T08:34:25.497Z,100010.84
2022-08-21T08:36:55.526Z,100027.78
2022-08-21T08:39:29.395Z,100024.09
2022-08-21T08:42:33.824Z,100037.16
2022-08-21T08:45:17.160Z,100031.59
2022-08-21T08:47:54.284Z,100026.38
2022-08-21T08:50:29.304Z,100009.03
2022-08-21T08:53:05.968Z,100014.81
2022-08-21T08:55:42.950Z,100000.44
2022-08-21T08:58:30.769Z,100000.22
2022-08-21T09:01:00.486Z,99990.25
2022-08-21T09:03:30.843Z,100003.91
2022-08-21T09:06:08.755Z,99985.59
2022-08-21T09:08:57.725Z,99999.31
2022-08-21T09:11:45.112Z,100001.53
2022-08-21T09:14:25.842Z,99994.16
2022-08-21T09:17:14.603Z,100006.31
2022-08-21T09:19:48.543Z,100018.16
2022-08-21T09:22:33.748Z,100024.97
2022-08-21T09:25:23.263Z,100012.31
2022-08-21T09:27:53.657Z,100010.69
2022-08-21T09:30:29.994Z,100005.31
2022-08-21T09:32:59.813Z,99996.72
2022-08-21T09:35:29.503Z,99995.75
2022-08-21T09:38:04.366Z,100001.34
2022-08-21T09:40:48.235Z,99991.09
2022-08-21T09:43:19.599Z,100003.22
2022-08-21T09:45:52.830Z,99998.88
2022-08-21T09:48:32.921Z,100001.69
2022-08-21T09:51:15.308Z,100012.44
2022-08-21T09:53:51.485Z,100018.66
2022-08-21T09:56:48.556Z,100033.59
2022-08-21T09:59:37.319Z,100033.91
2022-08-21T10:02:28.461Z,100020.53
2022-08-21T10:05:04.225Z,100018.13
2022-08-21T10:07:35.470Z,100041.88
2022-08-21T10:10:11.907Z,100038.97
2022-08-21T10:12:52.920Z,100046.44
2022-08-21T10:15:43.090Z,100052.16
2022-08-21T10:18:16.181Z,100061.81
2022-08-21T10:21:00.838Z,100038.19
2022-08-21T10:23:39.700Z,100049.75
2022-08-21T10:26:13.791Z,100040.09
2022-08-21T10:29:06.217Z,100045.84
2022-08-21T10:31:40.639Z,100060.84
2022-08-21T10:34:20.362Z,100034.19
2022-08-21T10:37:10.567Z,100060.44
2022-08-21T10:39:52.690Z,100049.84
2022-08-21T10:42:36.328Z,100062.81
2022-08-21T10:45:22.516Z,100053.66
2022-08-21T10:47:58.298Z,100026.63
2022-08-21T10:50:33.732Z,100062.81
2022-08-21T10:53:21.073Z,100059.31
2022-08-21T10:56:08.444Z,100064.25
2022-08-21T10:58:48.828Z,100066.94
2022-08-21T11:01:46.369Z,100062.22
2022-08-21T11:04:22.164Z,100066.50
2022-08-21T11:06:56.750Z,100069.19
2022-08-21T11:09:27.752Z,100081.56
2022-08-21T11:12:11.123Z,100093.16
2022-08-21T11:15:05.746Z,100098.81
2022-08-21T11:17:46.921Z,100072.69
2022-08-21T11:20:29.905Z,100086.28
2022-08-21T11:23:15.469Z,100091.34
2022-08-21T11:25:48.959Z,100091.97
2022-08-21T11:28:50.185Z,100062.13
2022-08-21T11:31:30.653Z,100076.19
2022-08-21T11:34:09.948Z,100090.03
2022-08-21T11:36:57.963Z,100085.25
2022-08-21T11:39:54.865Z,100077.06
2022-08-21T11:42:24.074Z,100095.44
2022-08-21T11:44:56.997Z,100097.53
2022-08-21T11:47:26.207Z,100117.28
2022-08-21T11:50:29.648Z,100103.91
2022-08-21T11:53:08.796Z,100101.59
2022-08-21T11:55:44.283Z,100108.50
2022-08-21T11:58:17.274Z,100117.88
2022-08-21T12:00:56.182Z,100113.91
2022-08-21T12:03:32.610Z,100121.69
2022-08-21T12:06:13.905Z,100108.31
2022-08-21T12:09:02.288Z,100096.81
2022-08-21T12:11:31.883Z,100085.25
2022-08-21T12:14:21.369Z,100102.81
2022-08-21T12:16:52.577Z,100106.31
2022-08-21T12:19:27.966Z,100099.03
2022-08-21T12:22:13.770Z,100087.53
2022-08-21T12:24:53.354Z,100103.59
2022-08-21T12:27:56.233Z,100106.00
2022-08-21T12:30:38.273Z,100105.22
2022-08-21T12:33:21.266Z,100099.31
2022-08-21T12:35:53.488Z,100082.09
2022-08-21T12:38:30.201Z,100088.84
2022-08-21T12:41:00.975Z,100076.59
2022-08-21T12:43:38.082Z,100081.09
2022-08-21T12:46:07.800Z,100078.69
2022-08-21T12:48:37.146Z,100092.53
2022-08-21T12:51:18.664Z,100088.56
2022-08-21T12:54:00.880Z,100082.47
2022-08-21T12:56:34.431Z,100073.97
2022-08-21T12:59:07.445Z,100074.28
2022-08-21T13:01:57.677Z,100080.47
2022-08-21T13:04:35.418Z,100071.59
2022-08-21T13:07:14.530Z,100074.59
2022-08-21T13:09:50.518Z,100063.59
2022-08-21T13:12:21.523Z,100064.13
2022-08-21T13:14:52.915Z,100070.00
2022-08-21T13:17:26.054Z,100065.81
2022-08-21T13:20:06.245Z,100058.63
2022-08-21T13:22:41.786Z,100074.88
2022-08-21T13:25:21.266Z,100048.84
2022-08-21T13:28:15.063Z,100074.38
2022-08-21T13:30:56.038Z,100073.31
2022-08-21T13:33:37.606Z,100048.16
2022-08-21T13:36:08.779Z,100054.03
2022-08-21T13:38:39.832Z,100067.09
2022-08-21T13:42:02.799Z,100059.84
2022-08-21T13:44:45.195Z,100057.16
2022-08-21T13:47:17.676Z,100053.66
2022-08-21T13:49:50.019Z,100052.38
2022-08-21T13:52:28.656Z,100050.75
2022-08-21T13:55:12.582Z,100040.59
2022-08-21T13:57:42.131Z,100041.59
2022-08-21T14:00:21.176Z,100048.06
2022-08-21T14:02:54.028Z,100049.66
2022-08-21T14:05:29.893Z,100041.88
2022-08-21T14:08:22.084Z,100017.34
2022-08-21T14:11:00.594Z,100043.47
2022-08-21T14:13:59.251Z,100036.78
2022-08-21T14:16:31.871Z,100027.53
2022-08-21T14:19:04.775Z,100040.47
2022-08-21T14:22:20.768Z,100036.22
2022-08-21T14:24:55.022Z,100034.59
2022-08-21T14:27:26.708Z,100016.44
2022-08-21T14:30:02.315Z,100035.91
2022-08-21T14:32:44.922Z,99995.91
2022-08-21T14:35:23.801Z,100015.03
2022-08-21T14:38:20.633Z,100024.03
2022-08-21T14:40:55.996Z,100031.28
2022-08-21T14:43:32.856Z,100029.41
2022-08-21T14:46:04.371Z,100033.00
2022-08-21T14:48:34.162Z,100029.22
2022-08-21T14:51:04.069Z,100012.06
2022-08-21T14:53:33.806Z,100015.25
2022-08-21T14:56:09.696Z,100003.59
2022-08-21T14:58:42.122Z,100028.91
2022-08-21T15:01:14.279Z,100003.91
2022-08-21T15:03:44.441Z,100023.31
2022-08-21T15:06:15.322Z,100011.06
2022-08-21T15:09:14.018Z,100022.03
2022-08-21T15:11:43.653Z,100019.84
2022-08-21T15:14:21.600Z,100005.56
2022-08-21T15:16:52.153Z,99999.28
2022-08-21T15:19:22.117Z,100006.69
2022-08-21T15:21:52.234Z,99987.25
2022-08-21T15:24:24.546Z,99995.53
2022-08-21T15:26:55.584Z,100004.00
2022-08-21T15:29:28.950Z,99990.75
2022-08-21T15:32:25.624Z,100012.84
2022-08-21T15:34:56.432Z,99988.34
2022-08-21T15:37:27.577Z,99959.41
2022-08-21T15:39:57.228Z,99986.44
2022-08-21T15:42:31.596Z,100003.19
2022-08-21T15:45:01.438Z,99978.66
2022-08-21T15:47:39.110Z,99994.91
2022-08-21T15:50:11.881Z,99994.59
2022-08-21T15:52:41.914Z,99991.63
2022-08-21T15:55:12.686Z,99993.22
2022-08-21T15:57:58.105Z,99989.22
2022-08-21T16:00:29.006Z,99981.94
2022-08-21T16:03:01.747Z,99972.25
2022-08-21T16:05:31.804Z,99973.38
2022-08-21T16:08:01.983Z,99973.06
2022-08-21T16:10:33.529Z,99964.03
2022-08-21T16:13:07.747Z,99966.41
2022-08-21T16:15:37.686Z,99971.78
2022-08-21T16:18:08.029Z,99960.94
2022-08-21T16:20:37.605Z,99968.59
2022-08-21T16:23:08.348Z,99957.44
2022-08-21T16:25:40.456Z,99967.50
2022-08-21T16:28:13.688Z,99946.97
2022-08-21T16:30:45.361Z,99957.03
2022-08-21T16:33:39.752Z,99959.72
2022-08-21T16:36:11.699Z,99916.56
2022-08-21T16:38:45.509Z,99953.72
2022-08-21T16:41:18.804Z,99952.63
2022-08-21T16:43:49.023Z,99951.53
2022-08-21T16:46:19.167Z,99945.94
2022-08-21T16:48:48.950Z,99948.03
2022-08-21T16:51:19.545Z,99948.34
2022-08-21T16:53:49.052Z,99940.56
2022-08-21T16:56:18.754Z,99916.84
2022-08-21T16:58:51.318Z,99915.56
2022-08-21T17:01:24.124Z,99926.44
2022-08-21T17:03:55.035Z,99936.78
2022-08-21T17:06:28.917Z,99929.78
2022-08-21T17:08:59.469Z,99923.13
2022-08-21T17:11:41.591Z,99924.00
2022-08-21T17:14:20.995Z,99914.06
2022-08-21T17:16:53.391Z,99918.25
2022-08-21T17:19:22.900Z,99904.91
2022-08-21T17:21:52.233Z,99922.03
2022-08-21T17:24:24.220Z,99899.13
2022-08-21T17:26:55.339Z,99889.81
2022-08-21T17:29:30.345Z,99893.75
2022-08-21T17:31:59.830Z,99905.47
2022-08-21T17:34:31.184Z,99885.97
2022-08-21T17:37:01.622Z,99901.91
2022-08-21T17:39:30.793Z,99894.59
2022-08-21T17:42:04.536Z,99901.59
2022-08-21T17:44:34.049Z,99889.53
2022-08-21T17:47:03.738Z,99896.22
2022-08-21T17:49:33.132Z,99885.44
2022-08-21T17:52:02.762Z,99892.72
2022-08-21T17:54:32.283Z,99880.66
2022-08-21T17:57:02.774Z,99897.00
2022-08-21T17:59:32.398Z,99873.78
2022-08-21T18:02:03.776Z,99847.34
2022-08-21T18:04:35.238Z,99867.91
2022-08-21T18:07:04.548Z,99879.88
2022-08-21T18:09:33.755Z,99879.88
2022-08-21T18:12:03.439Z,99857.75
2022-08-21T18:14:36.397Z,99873.06
2022-08-21T18:17:13.999Z,99872.28
2022-08-21T18:19:49.281Z,99860.03
2022-08-21T18:22:18.801Z,99863.03
2022-08-21T18:24:48.275Z,99844.97
2022-08-21T18:27:17.685Z,99847.19
2022-08-21T18:29:47.876Z,99853.88
2022-08-21T18:32:30.514Z,99867.69
2022-08-21T18:35:02.624Z,99851.22
2022-08-21T18:37:33.493Z,99852.34
2022-08-21T18:40:03.067Z,99843.25
2022-08-21T18:42:34.448Z,99836.41
2022-08-21T18:45:04.696Z,99844.38
2022-08-21T18:47:38.365Z,99849.44
2022-08-21T18:50:10.745Z,99828.44
2022-08-21T18:52:52.851Z,99844.88
2022-08-21T18:55:24.449Z,99844.56
2022-08-21T18:57:57.554Z,99846.44
2022-08-21T19:00:44.284Z,99835.69
2022-08-21T19:03:20.045Z,99822.03
2022-08-21T19:05:55.116Z,99817.88
2022-08-21T19:08:28.554Z,99829.81
2022-08-21T19:10:59.552Z,99838.38
2022-08-21T19:13:30.065Z,99824.25
2022-08-21T19:16:01.634Z,99804.50
2022-08-21T19:18:32.285Z,99825.22
2022-08-21T19:21:01.516Z,99817.25
2022-08-21T19:23:31.511Z,99799.84
2022-08-21T19:26:07.110Z,99804.31
2022-08-21T19:28:45.853Z,99796.94
2022-08-21T19:31:23.744Z,99810.50
2022-08-21T19:34:01.757Z,99794.03
2022-08-21T19:36:32.488Z,99792.69
2022-08-21T19:39:08.216Z,99819.34
2022-08-21T19:41:41.103Z,99813.66
2022-08-21T19:44:15.603Z,99807.31
2022-08-21T19:46:46.282Z,99816.94
2022-08-21T19:49:27.187Z,99809.69
2022-08-21T19:51:56.709Z,99801.72
2022-08-21T19:54:32.509Z,99808.88
2022-08-21T19:57:05.980Z,99806.81
2022-08-21T19:59:35.671Z,99804.09
2022-08-21T20:02:05.438Z,99800.91
2022-08-21T20:04:35.198Z,99818.25
2022-08-21T20:07:08.323Z,99822.84
2022-08-21T20:09:38.678Z,99810.28
2022-08-21T20:12:10.989Z,99799.41
2022-08-21T20:14:48.272Z,99825.03
2022-08-21T20:17:19.266Z,99823.34
2022-08-21T20:19:54.366Z,99818.56
2022-08-21T20:22:25.027Z,99799.41
2022-08-21T20:24:55.777Z,99792.06
2022-08-21T20:27:29.262Z,99789.38
2022-08-21T20:29:59.048Z,99819.19
2022-08-21T20:32:29.047Z,99828.03
2022-08-21T20:35:01.726Z,99810.00
2022-08-21T20:37:36.593Z,99816.94
2022-08-21T20:40:13.176Z,99823.25
2022-08-21T20:42:51.242Z,99833.09
2022-08-21T20:45:32.733Z,99830.22
2022-08-21T20:48:06.904Z,99828.44
2022-08-21T20:50:39.746Z,99845.78
2022-08-21T20:53:18.607Z,99841.50
2022-08-21T20:55:51.169Z,99841.78
2022-08-21T20:58:25.752Z,99829.63
2022-08-21T21:01:06.154Z,99843.50
2022-08-21T21:03:45.224Z,99844.06
2022-08-21T21:06:23.819Z,99849.06
2022-08-21T21:08:59.228Z,99838.50
2022-08-21T21:11:36.181Z,99854.28
2022-08-21T21:14:17.832Z,99836.09
2022-08-21T21:16:51.102Z,99862.53
2022-08-21T21:19:41.048Z,99858.03
2022-08-21T21:22:17.699Z,99836.34
2022-08-21T21:24:56.709Z,99877.88
2022-08-21T21:27:35.283Z,99877.09
2022-08-21T21:30:24.432Z,99874.69
2022-08-21T21:32:55.419Z,99861.00
2022-08-21T21:35:36.404Z,99869.63
2022-08-21T21:38:51.611Z,99872.50
2022-08-21T21:41:49.061Z,99880.59
2022-08-21T21:44:44.948Z,99876.19
2022-08-21T21:47:20.133Z,99898.31
2022-08-21T21:50:22.215Z,99901.00
2022-08-21T21:53:24.815Z,99881.06
2022-08-21T21:55:54.176Z,99890.72
2022-08-21T21:58:26.430Z,99908.78
2022-08-21T22:01:09.571Z,99878.78
2022-08-21T22:04:21.171Z,99916.84
2022-08-21T22:07:14.191Z,99913.09
2022-08-21T22:09:54.211Z,99909.06
2022-08-21T22:12:50.051Z,99893.91
2022-08-21T22:18:16.383Z,99912.78
2022-08-21T22:21:12.704Z,99919.75
2022-08-21T22:24:06.375Z,99922.75
2022-08-21T22:26:44.352Z,99930.50
2022-08-21T22:29:19.898Z,99926.34
2022-08-21T22:32:10.350Z,99933.81
2022-08-21T22:34:39.731Z,99923.44
2022-08-21T22:37:12.485Z,99955.25
2022-08-21T22:39:44.539Z,99953.16
2022-08-21T22:42:24.948Z,99951.25
2022-08-21T22:45:09.401Z,99916.75
2022-08-21T22:47:44.783Z,99969.19
2022-08-21T22:50:27.485Z,99971.91
2022-08-21T22:53:09.866Z,99966.63
2022-08-21T22:55:43.785Z,99970.59
2022-08-21T22:58:16.205Z,99989.31
2022-08-21T23:01:14.410Z,99989.31
2022-08-21T23:03:51.652Z,99982.88
2022-08-21T23:07:02.621Z,99997.59
2022-08-21T23:09:40.784Z,99980.06
2022-08-21T23:12:33.045Z,99998.09
2022-08-21T23:15:12.945Z,99989.84
2022-08-21T23:17:50.215Z,99977.59
2022-08-21T23:20:32.053Z,99964.03
2022-08-21T23:23:08.450Z,99989.94
2022-08-21T23:26:06.026Z,99993.22
2022-08-21T23:29:24.935Z,99998.50
2022-08-21T23:32:35.556Z,100001.69
2022-08-21T23:35:18.679Z,100004.88
2022-08-21T23:37:51.619Z,99997.59
2022-08-21T23:43:58.246Z,99992.41
2022-08-21T23:47:22.520Z,99998.56
2022-08-21T23:49:59.113Z,100005.06
2022-08-21T23:53:00.447Z,100012.25
2022-08-21T23:55:58.345Z,100016.25
2022-08-21T23:58:52.104Z,100011.31
